createdAt,value
2018-07-31T00:00:21.948Z,80.10
2018-07-31T00:02:50.892Z,80.30
2018-07-31T00:05:19.721Z,80.30
2018-07-31T00:07:49.508Z,80.40
2018-07-31T00:10:19.173Z,81.70
2018-07-31T00:12:47.885Z,80.30
2018-07-31T00:15:16.583Z,80.00
2018-07-31T00:17:45.305Z,79.90
2018-07-31T00:20:15.164Z,80.60
2018-07-31T00:22:43.818Z,80.10
2018-07-31T00:25:12.674Z,80.10
2018-07-31T00:27:41.394Z,79.60
2018-07-31T00:30:10.429Z,79.00
2018-07-31T00:32:39.327Z,79.00
2018-07-31T00:35:09.092Z,78.30
2018-07-31T00:37:37.848Z,77.80
2018-07-31T00:40:06.589Z,78.60
2018-07-31T00:42:35.539Z,80.10
2018-07-31T00:45:05.661Z,82.10
2018-07-31T00:47:35.405Z,81.50
2018-07-31T00:50:04.239Z,81.10
2018-07-31T00:52:32.973Z,81.40
2018-07-31T00:55:01.670Z,80.30
2018-07-31T00:57:32.546Z,80.00
2018-07-31T01:02:32.750Z,80.50
2018-07-31T01:05:01.509Z,81.70
2018-07-31T01:07:30.349Z,81.40
2018-07-31T01:10:00.941Z,80.00
2018-07-31T01:12:29.781Z,80.10
2018-07-31T01:14:58.466Z,80.20
2018-07-31T01:17:27.258Z,81.60
2018-07-31T01:19:56.812Z,82.00
2018-07-31T01:22:25.547Z,82.20
2018-07-31T01:24:54.444Z,82.50
2018-07-31T01:27:23.209Z,83.80
2018-07-31T01:29:52.173Z,83.90
2018-07-31T01:32:20.938Z,82.80
2018-07-31T01:34:50.356Z,82.10
2018-07-31T01:37:19.134Z,83.40
2018-07-31T01:39:47.900Z,84.70
2018-07-31T01:42:16.688Z,85.60
2018-07-31T01:44:45.380Z,86.50
2018-07-31T01:47:14.356Z,87.50
2018-07-31T01:49:43.343Z,88.00
2018-07-31T01:52:12.073Z,87.70
2018-07-31T01:54:40.788Z,89.10
2018-07-31T01:57:09.566Z,88.30
2018-07-31T01:59:39.330Z,88.00
2018-07-31T02:02:08.032Z,88.60
2018-07-31T02:04:37.071Z,87.70
2018-07-31T02:07:05.955Z,88.30
2018-07-31T02:09:34.625Z,87.30
2018-07-31T02:12:03.428Z,87.70
2018-07-31T02:14:32.128Z,87.60
2018-07-31T02:17:00.854Z,87.80
2018-07-31T02:19:29.613Z,88.10
2018-07-31T02:21:58.392Z,89.20
2018-07-31T02:24:27.188Z,90.20
2018-07-31T02:26:56.151Z,90.20
2018-07-31T02:29:30.216Z,90.10
2018-07-31T02:32:01.139Z,90.10
2018-07-31T02:34:29.928Z,90.60
2018-07-31T02:36:58.764Z,90.80
2018-07-31T02:39:27.529Z,91.70
2018-07-31T02:42:00.234Z,91.50
2018-07-31T02:44:30.092Z,91.70
2018-07-31T02:46:58.886Z,92.00
2018-07-31T02:49:28.555Z,92.00
2018-07-31T02:51:57.293Z,91.40
2018-07-31T02:54:26.148Z,90.90
2018-07-31T02:56:54.976Z,90.80
2018-07-31T02:59:23.819Z,91.30
2018-07-31T03:01:52.673Z,91.70
2018-07-31T03:04:21.360Z,91.70
2018-07-31T03:06:50.323Z,92.50
2018-07-31T03:11:48.117Z,92.50
2018-07-31T03:14:17.132Z,92.60
2018-07-31T03:16:46.516Z,92.30
2018-07-31T03:19:15.329Z,92.50
2018-07-31T03:21:44.090Z,92.40
2018-07-31T03:24:12.852Z,92.60
2018-07-31T03:26:41.550Z,92.70
2018-07-31T03:29:11.310Z,93.00
2018-07-31T03:31:40.080Z,93.00
2018-07-31T03:34:09.998Z,94.50
2018-07-31T03:36:38.963Z,94.30
2018-07-31T03:39:08.871Z,94.80
2018-07-31T03:41:37.722Z,95.30
2018-07-31T03:44:07.015Z,94.90
2018-07-31T03:46:37.412Z,94.90
2018-07-31T03:49:06.369Z,94.80
2018-07-31T03:51:35.276Z,94.60
2018-07-31T03:54:04.057Z,94.50
2018-07-31T03:56:32.947Z,94.80
2018-07-31T03:59:01.661Z,95.00
2018-07-31T04:01:30.443Z,95.10
2018-07-31T04:03:59.209Z,94.90
2018-07-31T04:06:28.012Z,94.70
2018-07-31T04:08:59.873Z,94.20
2018-07-31T04:13:57.862Z,93.70
2018-07-31T04:16:26.623Z,93.50
2018-07-31T04:18:55.331Z,93.30
2018-07-31T04:21:24.037Z,94.20
2018-07-31T04:23:52.692Z,94.60
2018-07-31T04:26:21.482Z,95.00
2018-07-31T04:28:50.342Z,94.00
2018-07-31T04:31:19.438Z,92.70
2018-07-31T04:33:48.189Z,91.60
2018-07-31T04:36:17.881Z,90.10
2018-07-31T04:38:46.602Z,87.60
2018-07-31T04:41:16.301Z,86.30
2018-07-31T04:43:45.092Z,84.80
2018-07-31T04:46:13.840Z,84.40
2018-07-31T04:48:42.593Z,84.40
2018-07-31T04:53:39.606Z,83.00
2018-07-31T04:56:08.330Z,81.60
2018-07-31T04:58:37.046Z,79.90
2018-07-31T05:01:05.763Z,78.20
2018-07-31T05:03:34.447Z,78.50
2018-07-31T05:06:03.287Z,78.00
2018-07-31T05:08:32.022Z,75.80
2018-07-31T05:11:00.777Z,76.70
2018-07-31T05:13:29.454Z,77.20
2018-07-31T05:15:58.174Z,76.70
2018-07-31T05:18:26.952Z,76.80
2018-07-31T05:20:55.882Z,76.40
2018-07-31T05:23:24.569Z,74.50
2018-07-31T05:25:53.452Z,73.70
2018-07-31T05:28:22.242Z,77.90
2018-07-31T05:30:50.926Z,79.00
2018-07-31T05:33:19.746Z,80.70
2018-07-31T05:35:48.437Z,83.00
2018-07-31T05:38:17.175Z,84.00
2018-07-31T05:40:45.980Z,86.30
2018-07-31T05:43:14.713Z,87.00
2018-07-31T05:48:11.898Z,92.40
2018-07-31T05:50:40.712Z,91.70
2018-07-31T05:53:09.515Z,91.30
2018-07-31T05:55:38.225Z,91.60
2018-07-31T05:58:07.129Z,91.30
2018-07-31T06:00:35.953Z,90.10
2018-07-31T06:03:04.928Z,90.20
2018-07-31T06:05:33.637Z,88.60
2018-07-31T06:08:02.374Z,92.40
2018-07-31T06:10:32.234Z,91.20
2018-07-31T06:13:01.915Z,90.30
2018-07-31T06:15:30.681Z,91.30
2018-07-31T06:17:59.437Z,91.00
2018-07-31T06:20:28.161Z,90.70
2018-07-31T06:22:56.859Z,90.90
2018-07-31T06:25:26.271Z,89.00
2018-07-31T06:27:55.042Z,90.50
2018-07-31T06:30:23.798Z,85.00
2018-07-31T06:32:52.650Z,89.40
2018-07-31T06:35:22.538Z,88.50
2018-07-31T06:37:51.225Z,87.90
2018-07-31T06:40:20.282Z,85.90
2018-07-31T06:42:49.729Z,84.70
2018-07-31T06:45:18.504Z,80.50
2018-07-31T06:47:48.911Z,78.50
2018-07-31T06:50:17.608Z,76.70
2018-07-31T06:52:46.332Z,75.80
2018-07-31T06:55:17.241Z,75.30
2018-07-31T06:57:45.888Z,74.50
2018-07-31T07:00:15.649Z,73.90
2018-07-31T07:02:44.353Z,76.00
2018-07-31T07:05:13.280Z,77.10
2018-07-31T07:07:41.882Z,77.50
2018-07-31T07:10:10.695Z,80.30
2018-07-31T07:12:39.368Z,76.90
2018-07-31T07:15:08.150Z,80.20
2018-07-31T07:17:36.904Z,81.60
2018-07-31T07:20:05.663Z,82.10
2018-07-31T07:22:35.391Z,80.90
2018-07-31T07:25:08.034Z,82.20
2018-07-31T07:27:36.764Z,84.90
2018-07-31T07:30:06.393Z,90.30
2018-07-31T07:32:36.124Z,90.30
2018-07-31T07:35:04.968Z,91.30
2018-07-31T07:37:34.694Z,91.70
2018-07-31T07:40:03.742Z,90.50
2018-07-31T07:42:32.497Z,91.10
2018-07-31T07:45:01.180Z,89.50
2018-07-31T07:47:30.053Z,89.90
2018-07-31T07:49:59.781Z,90.30
2018-07-31T07:52:28.501Z,87.10
2018-07-31T07:54:57.248Z,87.90
2018-07-31T07:57:26.178Z,88.50
2018-07-31T07:59:54.937Z,85.50
2018-07-31T08:02:23.658Z,85.00
2018-07-31T08:04:52.407Z,80.90
2018-07-31T08:07:21.249Z,82.80
2018-07-31T08:09:50.100Z,79.00
2018-07-31T08:12:18.785Z,80.40
2018-07-31T08:14:47.576Z,81.60
2018-07-31T08:17:16.316Z,81.80
2018-07-31T08:19:45.055Z,80.00
2018-07-31T08:22:13.756Z,80.30
2018-07-31T08:24:42.612Z,80.60
2018-07-31T08:27:11.313Z,82.20
2018-07-31T08:29:40.011Z,83.00
2018-07-31T08:32:09.007Z,77.80
2018-07-31T08:34:37.784Z,80.20
2018-07-31T08:37:07.064Z,80.20
2018-07-31T08:39:36.009Z,82.00
2018-07-31T08:42:04.846Z,82.70
2018-07-31T08:44:33.686Z,83.90
2018-07-31T08:47:02.929Z,82.90
2018-07-31T08:49:31.781Z,79.50
2018-07-31T08:52:00.628Z,83.50
2018-07-31T08:54:30.356Z,86.50
2018-07-31T08:56:59.565Z,86.60
2018-07-31T08:59:28.284Z,84.20
2018-07-31T09:01:57.250Z,82.90
2018-07-31T09:04:26.069Z,85.30
2018-07-31T09:06:54.779Z,88.00
2018-07-31T09:09:23.621Z,86.00
2018-07-31T09:11:53.345Z,78.20
2018-07-31T09:14:23.130Z,79.90
2018-07-31T09:16:51.816Z,75.40
2018-07-31T09:19:20.536Z,78.40
2018-07-31T09:21:49.190Z,76.60
2018-07-31T09:24:17.865Z,74.10
2018-07-31T09:26:46.617Z,78.00
2018-07-31T09:29:15.447Z,84.20
2018-07-31T09:31:44.283Z,78.30
2018-07-31T09:34:12.979Z,80.50
2018-07-31T09:36:42.413Z,76.10
2018-07-31T09:39:12.368Z,75.60
2018-07-31T09:41:41.115Z,75.20
2018-07-31T09:44:10.201Z,67.60
2018-07-31T09:46:39.099Z,68.40
2018-07-31T09:49:07.829Z,65.30
2018-07-31T09:51:36.594Z,66.10
2018-07-31T09:54:05.315Z,65.50
2018-07-31T09:56:34.018Z,61.10
2018-07-31T09:59:02.783Z,63.80
2018-07-31T10:01:31.601Z,64.00
2018-07-31T10:04:00.308Z,62.00
2018-07-31T10:06:29.244Z,60.80
2018-07-31T10:08:57.985Z,61.00
2018-07-31T10:11:26.750Z,60.90
2018-07-31T10:13:55.548Z,63.60
2018-07-31T10:16:24.972Z,61.00
2018-07-31T10:18:53.655Z,57.70
2018-07-31T10:21:22.458Z,58.20
2018-07-31T10:23:51.187Z,61.10
2018-07-31T10:26:19.955Z,56.90
2018-07-31T10:28:49.698Z,59.70
2018-07-31T10:31:18.449Z,55.70
2018-07-31T10:33:48.178Z,55.80
2018-07-31T10:36:16.997Z,55.40
2018-07-31T10:38:47.758Z,55.40
2018-07-31T10:41:17.504Z,56.20
2018-07-31T10:43:46.377Z,58.10
2018-07-31T10:46:15.053Z,53.90
2018-07-31T10:48:44.105Z,54.50
2018-07-31T10:51:13.638Z,58.70
2018-07-31T10:56:12.517Z,56.10
2018-07-31T10:58:42.218Z,56.20
2018-07-31T11:01:10.946Z,54.00
2018-07-31T11:03:39.673Z,52.90
2018-07-31T11:08:36.893Z,56.60
2018-07-31T11:11:05.601Z,57.80
2018-07-31T11:13:34.414Z,56.30
2018-07-31T11:16:03.776Z,52.80
2018-07-31T11:18:32.488Z,51.90
2018-07-31T11:21:01.276Z,49.40
2018-07-31T11:23:30.010Z,50.50
2018-07-31T11:25:58.665Z,53.60
2018-07-31T11:28:27.485Z,51.60
2018-07-31T11:30:56.151Z,50.20
2018-07-31T11:33:24.890Z,53.80
2018-07-31T11:35:54.569Z,51.60
2018-07-31T11:38:23.479Z,48.70
2018-07-31T11:40:53.246Z,48.30
2018-07-31T11:43:21.956Z,49.20
2018-07-31T11:45:50.737Z,49.30
2018-07-31T11:48:19.433Z,47.70
2018-07-31T11:50:48.115Z,47.60
2018-07-31T11:53:16.913Z,44.50
2018-07-31T11:55:45.555Z,50.50
2018-07-31T11:58:14.288Z,48.20
2018-07-31T12:00:43.142Z,49.00
2018-07-31T12:03:12.926Z,48.50
2018-07-31T12:05:41.690Z,48.40
2018-07-31T12:08:10.493Z,46.20
2018-07-31T12:10:39.139Z,44.20
2018-07-31T12:13:08.040Z,48.00
2018-07-31T12:15:36.803Z,44.70
2018-07-31T12:18:05.588Z,46.30
2018-07-31T12:20:35.734Z,45.50
2018-07-31T12:23:05.096Z,47.90
2018-07-31T12:25:33.855Z,48.00
2018-07-31T12:28:02.553Z,45.80
2018-07-31T12:30:31.289Z,44.30
2018-07-31T12:32:59.916Z,45.20
2018-07-31T12:35:28.702Z,43.10
2018-07-31T12:37:57.380Z,44.80
2018-07-31T12:40:26.369Z,43.00
2018-07-31T12:45:23.454Z,42.60
2018-07-31T12:47:52.197Z,39.00
2018-07-31T12:50:20.994Z,41.50
2018-07-31T12:52:49.727Z,39.90
2018-07-31T12:55:18.467Z,38.60
2018-07-31T12:57:47.175Z,34.50
2018-07-31T13:00:16.668Z,37.70
2018-07-31T13:02:45.444Z,38.00
2018-07-31T13:05:14.186Z,36.70
2018-07-31T13:07:43.070Z,37.10
2018-07-31T13:10:11.754Z,35.60
2018-07-31T13:12:40.473Z,34.30
2018-07-31T13:15:09.196Z,32.80
2018-07-31T13:17:38.029Z,34.40
2018-07-31T13:20:06.847Z,34.60
2018-07-31T13:22:35.573Z,33.30
2018-07-31T13:25:04.400Z,37.20
2018-07-31T13:27:33.037Z,35.40
2018-07-31T13:30:01.907Z,36.00
2018-07-31T13:34:59.721Z,37.40
2018-07-31T13:37:28.589Z,32.70
2018-07-31T13:39:57.317Z,34.50
2018-07-31T13:42:26.069Z,35.00
2018-07-31T13:44:55.168Z,33.00
2018-07-31T13:47:23.863Z,34.00
2018-07-31T13:49:52.705Z,31.90
2018-07-31T13:52:21.571Z,33.20
2018-07-31T13:54:50.267Z,30.00
2018-07-31T13:57:18.947Z,33.80
2018-07-31T13:59:47.952Z,28.40
2018-07-31T14:02:16.660Z,28.30
2018-07-31T14:04:45.424Z,30.40
2018-07-31T14:07:14.179Z,31.10
2018-07-31T14:09:42.954Z,28.40
2018-07-31T14:12:11.689Z,28.30
2018-07-31T14:14:41.460Z,30.80
2018-07-31T14:17:10.950Z,30.50
2018-07-31T14:19:39.614Z,28.30
2018-07-31T14:22:08.518Z,28.20
2018-07-31T14:24:37.338Z,27.60
2018-07-31T14:27:06.018Z,26.80
2018-07-31T14:29:34.836Z,27.40
2018-07-31T14:32:03.687Z,26.90
2018-07-31T14:34:32.279Z,28.30
2018-07-31T14:37:01.604Z,28.60
2018-07-31T14:39:30.352Z,28.30
2018-07-31T14:41:58.980Z,30.00
2018-07-31T14:44:27.666Z,26.60
2018-07-31T14:46:57.398Z,28.40
2018-07-31T14:49:26.269Z,28.10
2018-07-31T14:51:54.947Z,26.60
2018-07-31T14:54:23.647Z,28.40
2018-07-31T14:56:52.355Z,26.60
2018-07-31T14:59:21.627Z,26.80
2018-07-31T15:01:50.262Z,28.40
2018-07-31T15:04:19.004Z,24.70
2018-07-31T15:09:15.999Z,27.10
2018-07-31T15:11:44.783Z,26.70
2018-07-31T15:14:14.128Z,26.50
2018-07-31T15:16:42.865Z,27.80
2018-07-31T15:19:11.544Z,27.20
2018-07-31T15:21:40.940Z,27.00
2018-07-31T15:24:09.620Z,26.70
2018-07-31T15:26:39.298Z,27.90
2018-07-31T15:29:08.029Z,27.20
2018-07-31T15:31:36.680Z,25.60
2018-07-31T15:34:05.999Z,25.60
2018-07-31T15:36:35.005Z,26.20
2018-07-31T15:39:06.211Z,28.50
2018-07-31T15:41:35.099Z,28.50
2018-07-31T15:44:04.035Z,25.60
2018-07-31T15:46:32.890Z,25.50
2018-07-31T15:49:02.674Z,24.50
2018-07-31T15:51:31.471Z,24.60
2018-07-31T15:54:00.264Z,26.20
2018-07-31T15:58:59.245Z,25.70
2018-07-31T16:01:28.807Z,24.00
2018-07-31T16:03:58.168Z,21.80
2018-07-31T16:06:26.831Z,22.80
2018-07-31T16:08:55.532Z,25.70
2018-07-31T16:11:24.246Z,26.00
2018-07-31T16:13:53.069Z,23.40
2018-07-31T16:16:21.761Z,25.80
2018-07-31T16:18:50.478Z,25.10
2018-07-31T16:21:19.325Z,23.50
2018-07-31T16:23:48.102Z,23.00
2018-07-31T16:26:17.488Z,21.70
2018-07-31T16:28:46.189Z,23.00
2018-07-31T16:31:14.980Z,22.70
2018-07-31T16:33:43.671Z,22.80
2018-07-31T16:36:12.509Z,23.30
2018-07-31T16:38:41.219Z,23.50
2018-07-31T16:41:09.961Z,22.60
2018-07-31T16:43:39.815Z,24.20
2018-07-31T16:48:36.974Z,24.00
2018-07-31T16:51:05.610Z,25.20
2018-07-31T16:53:35.325Z,22.80
2018-07-31T16:56:04.074Z,23.60
2018-07-31T16:58:32.834Z,23.60
2018-07-31T17:01:01.614Z,23.90
2018-07-31T17:03:30.319Z,25.60
2018-07-31T17:05:59.076Z,25.20
2018-07-31T17:08:27.717Z,27.10
2018-07-31T17:10:56.471Z,26.00
2018-07-31T17:13:26.173Z,26.00
2018-07-31T17:15:55.137Z,24.60
2018-07-31T17:18:23.840Z,24.80
2018-07-31T17:20:52.780Z,25.50
2018-07-31T17:23:21.579Z,25.20
2018-07-31T17:25:50.294Z,24.40
2018-07-31T17:28:19.076Z,25.50
2018-07-31T17:30:47.764Z,25.90
2018-07-31T17:33:16.497Z,26.80
2018-07-31T17:35:45.219Z,26.60
2018-07-31T17:38:14.037Z,25.50
2018-07-31T17:40:42.805Z,25.80
2018-07-31T17:43:11.543Z,26.10
2018-07-31T17:45:43.307Z,26.30
2018-07-31T17:48:12.154Z,27.80
2018-07-31T17:50:41.424Z,28.20
2018-07-31T17:53:10.720Z,28.20
2018-07-31T17:55:39.427Z,28.20
2018-07-31T17:58:07.765Z,28.10
2018-07-31T18:00:37.443Z,29.90
2018-07-31T18:03:06.284Z,31.10
2018-07-31T18:05:35.043Z,31.50
2018-07-31T18:08:03.949Z,32.60
2018-07-31T18:10:33.359Z,33.10
2018-07-31T18:13:02.075Z,34.10
2018-07-31T18:15:30.933Z,35.60
2018-07-31T18:17:59.976Z,36.70
2018-07-31T18:20:29.389Z,36.60
2018-07-31T18:22:58.142Z,36.00
2018-07-31T18:25:26.884Z,38.80
2018-07-31T18:27:55.648Z,40.30
2018-07-31T18:30:24.438Z,39.40
2018-07-31T18:32:53.322Z,38.10
2018-07-31T18:35:22.136Z,38.20
2018-07-31T18:37:50.850Z,38.60
2018-07-31T18:40:21.736Z,40.20
2018-07-31T18:42:50.550Z,39.40
2018-07-31T18:45:19.371Z,39.40
2018-07-31T18:47:48.146Z,41.90
2018-07-31T18:50:16.958Z,47.00
2018-07-31T18:52:46.736Z,45.60
2018-07-31T18:55:15.870Z,43.70
2018-07-31T18:57:44.611Z,46.40
2018-07-31T19:00:14.373Z,48.90
2018-07-31T19:02:45.265Z,47.00
2018-07-31T19:05:14.210Z,47.80
2018-07-31T19:07:43.017Z,46.50
2018-07-31T19:10:11.785Z,46.50
2018-07-31T19:12:40.698Z,46.10
2018-07-31T19:15:09.476Z,47.30
2018-07-31T19:17:39.332Z,47.70
2018-07-31T19:20:08.183Z,47.50
2018-07-31T19:22:36.957Z,47.00
2018-07-31T19:25:05.817Z,45.30
2018-07-31T19:27:34.939Z,44.60
2018-07-31T19:30:04.840Z,44.00
2018-07-31T19:32:34.676Z,43.60
2018-07-31T19:35:03.484Z,43.30
2018-07-31T19:37:33.278Z,43.50
2018-07-31T19:40:02.119Z,43.60
2018-07-31T19:42:30.901Z,44.80
2018-07-31T19:44:59.823Z,44.50
2018-07-31T19:47:29.276Z,44.00
2018-07-31T19:49:58.224Z,44.90
2018-07-31T19:52:29.666Z,45.10
2018-07-31T19:54:59.395Z,45.80
2018-07-31T19:57:28.160Z,46.10
2018-07-31T19:59:57.169Z,46.20
2018-07-31T20:02:25.961Z,46.50
2018-07-31T20:04:55.665Z,46.60
2018-07-31T20:07:24.537Z,46.40
2018-07-31T20:09:54.001Z,45.90
2018-07-31T20:12:23.520Z,46.60
2018-07-31T20:14:52.254Z,46.00
2018-07-31T20:17:20.970Z,46.30
2018-07-31T20:19:52.054Z,48.10
2018-07-31T20:22:21.863Z,50.20
2018-07-31T20:24:51.007Z,50.80
2018-07-31T20:27:19.972Z,51.40
2018-07-31T20:29:48.804Z,50.60
2018-07-31T20:32:17.634Z,50.10
2018-07-31T20:34:47.392Z,49.50
2018-07-31T20:37:16.332Z,51.40
2018-07-31T20:39:45.093Z,51.40
2018-07-31T20:42:13.893Z,50.70
2018-07-31T20:44:43.229Z,50.50
2018-07-31T20:47:12.058Z,50.90
2018-07-31T20:49:40.837Z,51.50
2018-07-31T20:52:10.814Z,51.40
2018-07-31T20:54:40.668Z,51.40
2018-07-31T20:57:09.395Z,51.30
2018-07-31T20:59:38.223Z,51.40
2018-07-31T21:02:07.914Z,52.30
2018-07-31T21:04:37.713Z,51.10
2018-07-31T21:07:06.881Z,51.40
2018-07-31T21:09:35.637Z,51.30
2018-07-31T21:12:04.563Z,52.00
2018-07-31T21:14:34.289Z,53.70
2018-07-31T21:17:03.062Z,53.80
2018-07-31T21:19:31.906Z,54.60
2018-07-31T21:22:01.633Z,55.30
2018-07-31T21:24:30.410Z,55.60
2018-07-31T21:26:59.177Z,56.70
2018-07-31T21:29:28.104Z,57.20
2018-07-31T21:31:56.943Z,57.90
2018-07-31T21:34:25.671Z,58.90
2018-07-31T21:36:54.765Z,59.50
2018-07-31T21:39:23.670Z,60.50
2018-07-31T21:41:52.365Z,60.70
2018-07-31T21:44:21.190Z,60.90
2018-07-31T21:46:50.443Z,60.60
2018-07-31T21:49:19.143Z,60.40
2018-07-31T21:54:16.363Z,61.50
2018-07-31T21:56:45.150Z,62.50
2018-07-31T21:59:14.904Z,62.60
2018-07-31T22:01:45.562Z,63.00
2018-07-31T22:04:14.322Z,62.90
2018-07-31T22:06:43.091Z,62.80
2018-07-31T22:09:11.925Z,62.60
2018-07-31T22:11:40.637Z,65.10
2018-07-31T22:14:09.467Z,63.40
2018-07-31T22:16:38.227Z,63.40
2018-07-31T22:19:06.958Z,63.00
2018-07-31T22:21:36.243Z,62.40
2018-07-31T22:24:06.968Z,63.30
2018-07-31T22:26:35.724Z,62.70
2018-07-31T22:31:34.973Z,63.90
2018-07-31T22:34:03.782Z,62.90
2018-07-31T22:36:32.592Z,63.10
2018-07-31T22:39:01.334Z,63.50
2018-07-31T22:41:30.359Z,63.70
2018-07-31T22:43:59.750Z,65.70
2018-07-31T22:46:30.464Z,65.40
2018-07-31T22:48:59.376Z,66.60
2018-07-31T22:51:29.227Z,67.20
2018-07-31T22:53:57.921Z,68.90
2018-07-31T22:56:26.781Z,71.10
2018-07-31T22:58:55.544Z,71.60
2018-07-31T23:01:24.616Z,72.30
2018-07-31T23:03:53.472Z,72.20
2018-07-31T23:06:22.238Z,74.20
2018-07-31T23:08:50.984Z,71.70
2018-07-31T23:11:19.754Z,72.20
2018-07-31T23:13:48.707Z,72.20
2018-07-31T23:16:17.470Z,72.20
2018-07-31T23:18:46.195Z,73.20
2018-07-31T23:21:16.180Z,72.70
2018-07-31T23:23:44.953Z,72.80
2018-07-31T23:26:13.714Z,71.40
2018-07-31T23:28:42.509Z,70.70
2018-07-31T23:31:12.383Z,70.10
2018-07-31T23:33:41.687Z,70.90
2018-07-31T23:36:10.769Z,70.50
2018-07-31T23:38:40.119Z,70.30
2018-07-31T23:41:09.293Z,69.70
2018-07-31T23:43:38.134Z,70.00
2018-07-31T23:46:06.962Z,70.20
2018-07-31T23:48:35.887Z,70.20
2018-07-31T23:51:04.641Z,70.90
2018-07-31T23:53:33.436Z,71.00
2018-07-31T23:56:02.215Z,71.30
2018-07-31T23:58:30.991Z,71.50
